sensor_id;sensor_type;location;lat;lon;timestamp;pressure;altitude;pressure_sealevel;temperature;humidity
5350;BME280;2697;42.144;24.794;2022-12-01T00:00:39;-19314.34;;;6.36;100.00
5350;BME280;2697;42.144;24.794;2022-12-01T00:03:04;-19313.16;;;6.32;100.00
5350;BME280;2697;42.144;24.794;2022-12-01T00:05:29;-19313.59;;;6.34;100.00
5350;BME280;2697;42.144;24.794;2022-12-01T00:07:56;-19317.50;;;6.47;100.00
5350;BME280;2697;42.144;24.794;2022-12-01T00:10:23;-19316.47;;;6.43;100.00
5350;BME280;2697;42.144;24.794;2022-12-01T00:12:57;-19317.06;;;6.45;100.00
5350;BME280;2697;42.144;24.794;2022-12-01T00:15:25;-19315.84;;;6.41;100.00
5350;BME280;2697;42.144;24.794;2022-12-01T00:17:51;-19313.91;;;6.35;100.00
5350;BME280;2697;42.144;24.794;2022-12-01T00:20:17;-19318.88;;;6.51;100.00
5350;BME280;2697;42.144;24.794;2022-12-01T00:22:47;-19320.22;;;6.56;100.00
5350;BME280;2697;42.144;24.794;2022-12-01T00:25:15;-19317.06;;;6.45;100.00
5350;BME280;2697;42.144;24.794;2022-12-01T00:27:41;-19313.75;;;6.34;100.00
5350;BME280;2697;42.144;24.794;2022-12-01T00:30:09;-19314.66;;;6.37;100.00
5350;BME280;2697;42.144;24.794;2022-12-01T00:32:34;-19314.66;;;6.37;100.00
5350;BME280;2697;42.144;24.794;2022-12-01T00:35:00;-19315.56;;;6.40;100.00
5350;BME280;2697;42.144;24.794;2022-12-01T00:37:28;-19316.16;;;6.42;100.00
5350;BME280;2697;42.144;24.794;2022-12-01T00:39:53;-19318.25;;;6.49;100.00
5350;BME280;2697;42.144;24.794;2022-12-01T00:42:18;-19314.19;;;6.36;100.00
5350;BME280;2697;42.144;24.794;2022-12-01T00:44:45;-19315.56;;;6.40;100.00
5350;BME280;2697;42.144;24.794;2022-12-01T00:47:11;-19315.56;;;6.40;100.00
5350;BME280;2697;42.144;24.794;2022-12-01T00:49:36;-19314.34;;;6.36;100.00
5350;BME280;2697;42.144;24.794;2022-12-01T00:52:02;-19314.66;;;6.37;100.00
5350;BME280;2697;42.144;24.794;2022-12-01T00:54:27;-19313.75;;;6.34;100.00
5350;BME280;2697;42.144;24.794;2022-12-01T00:56:56;-19314.50;;;6.37;100.00
5350;BME280;2697;42.144;24.794;2022-12-01T00:59:22;-19314.50;;;6.37;100.00
5350;BME280;2697;42.144;24.794;2022-12-01T01:01:48;-19311.94;;;6.28;100.00
5350;BME280;2697;42.144;24.794;2022-12-01T01:04:13;-19313.16;;;6.32;100.00
5350;BME280;2697;42.144;24.794;2022-12-01T01:06:39;-19313.91;;;6.35;100.00
5350;BME280;2697;42.144;24.794;2022-12-01T01:09:04;-19313.59;;;6.34;100.00
5350;BME280;2697;42.144;24.794;2022-12-01T01:11:30;-19313.16;;;6.32;100.00
5350;BME280;2697;42.144;24.794;2022-12-01T01:13:57;-19314.34;;;6.36;100.00
5350;BME280;2697;42.144;24.794;2022-12-01T01:16:23;-19311.50;;;6.26;100.00
5350;BME280;2697;42.144;24.794;2022-12-01T01:18:48;-19313.16;;;6.32;100.00
5350;BME280;2697;42.144;24.794;2022-12-01T01:21:16;-19313.16;;;6.32;100.00
5350;BME280;2697;42.144;24.794;2022-12-01T01:23:42;-19314.50;;;6.37;100.00
5350;BME280;2697;42.144;24.794;2022-12-01T01:26:25;-19314.66;;;6.37;100.00
5350;BME280;2697;42.144;24.794;2022-12-01T01:28:51;-19314.34;;;6.36;100.00
5350;BME280;2697;42.144;24.794;2022-12-01T01:31:21;-19314.66;;;6.37;100.00
5350;BME280;2697;42.144;24.794;2022-12-01T01:33:47;-19313.44;;;6.33;100.00
5350;BME280;2697;42.144;24.794;2022-12-01T01:36:13;-19313.44;;;6.33;100.00
5350;BME280;2697;42.144;24.794;2022-12-01T01:38:39;-19313.16;;;6.32;100.00
5350;BME280;2697;42.144;24.794;2022-12-01T01:41:05;-19315.09;;;6.39;100.00
5350;BME280;2697;42.144;24.794;2022-12-01T01:43:54;-19313.75;;;6.34;100.00
5350;BME280;2697;42.144;24.794;2022-12-01T01:46:24;-19311.34;;;6.26;100.00
5350;BME280;2697;42.144;24.794;2022-12-01T01:48:54;-19315.09;;;6.39;100.00
5350;BME280;2697;42.144;24.794;2022-12-01T01:51:28;-19313.16;;;6.32;100.00
5350;BME280;2697;42.144;24.794;2022-12-01T01:53:57;-19314.34;;;6.36;100.00
5350;BME280;2697;42.144;24.794;2022-12-01T01:56:25;-19315.25;;;6.39;100.00
5350;BME280;2697;42.144;24.794;2022-12-01T01:58:51;-19315.84;;;6.41;100.00
5350;BME280;2697;42.144;24.794;2022-12-01T02:01:17;-19314.19;;;6.36;100.00
5350;BME280;2697;42.144;24.794;2022-12-01T02:03:42;-19311.94;;;6.28;100.00
5350;BME280;2697;42.144;24.794;2022-12-01T02:06:09;-19313.44;;;6.33;100.00
5350;BME280;2697;42.144;24.794;2022-12-01T02:08:35;-19313.91;;;6.35;100.00
5350;BME280;2697;42.144;24.794;2022-12-01T02:17:36;-19310.75;;;6.24;100.00
5350;BME280;2697;42.144;24.794;2022-12-01T02:20:30;-19311.34;;;6.26;100.00
5350;BME280;2697;42.144;24.794;2022-12-01T02:26:21;-19313.75;;;6.34;100.00
5350;BME280;2697;42.144;24.794;2022-12-01T02:34:07;-19313.75;;;6.34;100.00
5350;BME280;2697;42.144;24.794;2022-12-01T02:36:41;-19313.75;;;6.34;100.00
5350;BME280;2697;42.144;24.794;2022-12-01T02:39:18;-19314.81;;;6.38;100.00
5350;BME280;2697;42.144;24.794;2022-12-01T02:41:51;-19314.81;;;6.38;100.00
5350;BME280;2697;42.144;24.794;2022-12-01T02:44:28;-19312.84;;;6.31;100.00
5350;BME280;2697;42.144;24.794;2022-12-01T02:47:07;-19315.09;;;6.39;100.00
5350;BME280;2697;42.144;24.794;2022-12-01T02:49:38;-19313.91;;;6.35;100.00
5350;BME280;2697;42.144;24.794;2022-12-01T02:52:05;-19314.50;;;6.37;100.00
5350;BME280;2697;42.144;24.794;2022-12-01T02:54:32;-19312.41;;;6.29;100.00
5350;BME280;2697;42.144;24.794;2022-12-01T02:56:57;-19311.66;;;6.27;100.00
5350;BME280;2697;42.144;24.794;2022-12-01T02:59:23;-19310.59;;;6.23;100.00
5350;BME280;2697;42.144;24.794;2022-12-01T03:01:55;-19312.41;;;6.29;100.00
5350;BME280;2697;42.144;24.794;2022-12-01T03:09:38;-19311.94;;;6.28;100.00
5350;BME280;2697;42.144;24.794;2022-12-01T03:20:34;-19311.03;;;6.25;100.00
5350;BME280;2697;42.144;24.794;2022-12-01T03:23:12;-19311.03;;;6.25;100.00
5350;BME280;2697;42.144;24.794;2022-12-01T03:25:41;-19310.75;;;6.24;100.00
5350;BME280;2697;42.144;24.794;2022-12-01T03:28:11;-19309.53;;;6.20;100.00
5350;BME280;2697;42.144;24.794;2022-12-01T03:30:38;-19308.78;;;6.17;100.00
5350;BME280;2697;42.144;24.794;2022-12-01T03:33:11;-19309.84;;;6.21;100.00
5350;BME280;2697;42.144;24.794;2022-12-01T03:35:51;-19310.59;;;6.23;100.00
5350;BME280;2697;42.144;24.794;2022-12-01T03:38:24;-19311.03;;;6.25;100.00
5350;BME280;2697;42.144;24.794;2022-12-01T03:40:58;-19307.72;;;6.14;100.00
5350;BME280;2697;42.144;24.794;2022-12-01T03:43:29;-19309.84;;;6.21;100.00
5350;BME280;2697;42.144;24.794;2022-12-01T03:48:37;-19308.94;;;6.18;100.00
5350;BME280;2697;42.144;24.794;2022-12-01T03:53:59;-19311.03;;;6.25;100.00
5350;BME280;2697;42.144;24.794;2022-12-01T03:56:31;-19310.75;;;6.24;100.00
5350;BME280;2697;42.144;24.794;2022-12-01T03:59:02;-19310.13;;;6.22;100.00
5350;BME280;2697;42.144;24.794;2022-12-01T04:01:32;-19310.44;;;6.23;100.00
5350;BME280;2697;42.144;24.794;2022-12-01T04:04:16;-19308.94;;;6.18;100.00
5350;BME280;2697;42.144;24.794;2022-12-01T04:06:44;-19313.16;;;6.32;100.00
5350;BME280;2697;42.144;24.794;2022-12-01T04:09:10;-19310.00;;;6.21;100.00
5350;BME280;2697;42.144;24.794;2022-12-01T04:11:36;-19310.00;;;6.21;100.00
5350;BME280;2697;42.144;24.794;2022-12-01T04:14:19;-19309.53;;;6.20;100.00
5350;BME280;2697;42.144;24.794;2022-12-01T04:16:45;-19310.75;;;6.24;100.00
5350;BME280;2697;42.144;24.794;2022-12-01T04:19:10;-19311.94;;;6.28;100.00
5350;BME280;2697;42.144;24.794;2022-12-01T04:21:36;-19310.75;;;6.24;100.00
5350;BME280;2697;42.144;24.794;2022-12-01T04:24:02;-19313.00;;;6.32;100.00
5350;BME280;2697;42.144;24.794;2022-12-01T04:26:32;-19310.44;;;6.23;100.00
5350;BME280;2697;42.144;24.794;2022-12-01T04:29:00;-19310.75;;;6.24;100.00
5350;BME280;2697;42.144;24.794;2022-12-01T04:31:26;-19310.44;;;6.23;100.00
5350;BME280;2697;42.144;24.794;2022-12-01T04:33:56;-19308.94;;;6.18;100.00
5350;BME280;2697;42.144;24.794;2022-12-01T04:36:23;-19310.13;;;6.22;100.00
5350;BME280;2697;42.144;24.794;2022-12-01T04:38:48;-19310.75;;;6.24;100.00
5350;BME280;2697;42.144;24.794;2022-12-01T04:41:14;-19310.13;;;6.22;100.00
5350;BME280;2697;42.144;24.794;2022-12-01T04:43:40;-19311.66;;;6.27;100.00
5350;BME280;2697;42.144;24.794;2022-12-01T04:46:06;-19308.63;;;6.17;100.00
5350;BME280;2697;42.144;24.794;2022-12-01T04:48:33;-19310.75;;;6.24;100.00
5350;BME280;2697;42.144;24.794;2022-12-01T04:50:59;-19311.03;;;6.25;100.00
5350;BME280;2697;42.144;24.794;2022-12-01T04:53:25;-19310.00;;;6.21;100.00
5350;BME280;2697;42.144;24.794;2022-12-01T04:55:50;-19310.44;;;6.23;100.00
5350;BME280;2697;42.144;24.794;2022-12-01T04:58:15;-19310.44;;;6.23;100.00
5350;BME280;2697;42.144;24.794;2022-12-01T05:00:41;-19310.13;;;6.22;100.00
5350;BME280;2697;42.144;24.794;2022-12-01T05:03:06;-19310.75;;;6.24;100.00
5350;BME280;2697;42.144;24.794;2022-12-01T05:05:32;-19311.94;;;6.28;100.00
5350;BME280;2697;42.144;24.794;2022-12-01T05:07:57;-19311.03;;;6.25;100.00
5350;BME280;2697;42.144;24.794;2022-12-01T05:10:24;-19310.59;;;6.23;100.00
5350;BME280;2697;42.144;24.794;2022-12-01T05:12:49;-19311.94;;;6.28;100.00
5350;BME280;2697;42.144;24.794;2022-12-01T05:15:15;-19311.78;;;6.27;100.00
5350;BME280;2697;42.144;24.794;2022-12-01T05:17:41;-19311.94;;;6.28;100.00
5350;BME280;2697;42.144;24.794;2022-12-01T05:20:07;-19312.53;;;6.30;100.00
5350;BME280;2697;42.144;24.794;2022-12-01T05:22:51;-19312.84;;;6.31;100.00
5350;BME280;2697;42.144;24.794;2022-12-01T05:25:19;-19313.16;;;6.32;100.00
5350;BME280;2697;42.144;24.794;2022-12-01T05:27:44;-19312.25;;;6.29;100.00
5350;BME280;2697;42.144;24.794;2022-12-01T05:30:10;-19312.25;;;6.29;100.00
5350;BME280;2697;42.144;24.794;2022-12-01T05:32:35;-19311.66;;;6.27;100.00
5350;BME280;2697;42.144;24.794;2022-12-01T05:35:01;-19311.66;;;6.27;100.00
5350;BME280;2697;42.144;24.794;2022-12-01T05:37:26;-19311.66;;;6.27;100.00
5350;BME280;2697;42.144;24.794;2022-12-01T05:39:57;-19312.84;;;6.31;100.00
5350;BME280;2697;42.144;24.794;2022-12-01T05:42:22;-19310.44;;;6.23;100.00
5350;BME280;2697;42.144;24.794;2022-12-01T05:44:48;-19310.75;;;6.24;100.00
5350;BME280;2697;42.144;24.794;2022-12-01T05:47:13;-19312.41;;;6.29;100.00
5350;BME280;2697;42.144;24.794;2022-12-01T05:49:38;-19313.28;;;6.33;100.00
5350;BME280;2697;42.144;24.794;2022-12-01T05:52:04;-19311.34;;;6.26;100.00
5350;BME280;2697;42.144;24.794;2022-12-01T05:54:29;-19310.00;;;6.21;100.00
5350;BME280;2697;42.144;24.794;2022-12-01T05:56:54;-19309.53;;;6.20;100.00
5350;BME280;2697;42.144;24.794;2022-12-01T05:59:20;-19308.94;;;6.18;100.00
5350;BME280;2697;42.144;24.794;2022-12-01T06:01:45;-19311.03;;;6.25;100.00
5350;BME280;2697;42.144;24.794;2022-12-01T06:04:10;-19309.09;;;6.18;100.00
5350;BME280;2697;42.144;24.794;2022-12-01T06:06:36;-19309.53;;;6.20;100.00
5350;BME280;2697;42.144;24.794;2022-12-01T06:09:02;-19308.03;;;6.15;100.00
5350;BME280;2697;42.144;24.794;2022-12-01T06:11:27;-19307.88;;;6.14;100.00
5350;BME280;2697;42.144;24.794;2022-12-01T06:13:52;-19306.53;;;6.10;100.00
5350;BME280;2697;42.144;24.794;2022-12-01T06:16:18;-19308.34;;;6.16;100.00
5350;BME280;2697;42.144;24.794;2022-12-01T06:18:43;-19308.03;;;6.15;100.00
5350;BME280;2697;42.144;24.794;2022-12-01T06:21:08;-19308.03;;;6.15;100.00
5350;BME280;2697;42.144;24.794;2022-12-01T06:23:34;-19307.72;;;6.14;100.00
5350;BME280;2697;42.144;24.794;2022-12-01T06:25:59;-19307.44;;;6.13;100.00
5350;BME280;2697;42.144;24.794;2022-12-01T06:28:25;-19307.28;;;6.12;100.00
5350;BME280;2697;42.144;24.794;2022-12-01T06:30:50;-19306.22;;;6.09;100.00
5350;BME280;2697;42.144;24.794;2022-12-01T06:33:15;-19306.38;;;6.09;100.00
5350;BME280;2697;42.144;24.794;2022-12-01T06:35:41;-19307.28;;;6.12;100.00
5350;BME280;2697;42.144;24.794;2022-12-01T06:38:06;-19306.22;;;6.09;100.00
5350;BME280;2697;42.144;24.794;2022-12-01T06:40:31;-19306.84;;;6.11;100.00
5350;BME280;2697;42.144;24.794;2022-12-01T06:43:00;-19305.47;;;6.06;100.00
5350;BME280;2697;42.144;24.794;2022-12-01T06:45:30;-19305.94;;;6.08;100.00
5350;BME280;2697;42.144;24.794;2022-12-01T06:47:56;-19306.53;;;6.10;100.00
5350;BME280;2697;42.144;24.794;2022-12-01T06:50:23;-19309.38;;;6.19;100.00
5350;BME280;2697;42.144;24.794;2022-12-01T06:52:48;-19308.34;;;6.16;100.00
5350;BME280;2697;42.144;24.794;2022-12-01T06:55:14;-19306.53;;;6.10;100.00
5350;BME280;2697;42.144;24.794;2022-12-01T06:57:40;-19305.94;;;6.08;100.00
5350;BME280;2697;42.144;24.794;2022-12-01T07:00:06;-19306.22;;;6.09;100.00
5350;BME280;2697;42.144;24.794;2022-12-01T07:02:32;-19306.97;;;6.11;100.00
5350;BME280;2697;42.144;24.794;2022-12-01T07:04:58;-19307.13;;;6.12;100.00
5350;BME280;2697;42.144;24.794;2022-12-01T07:07:23;-19306.69;;;6.10;100.00
5350;BME280;2697;42.144;24.794;2022-12-01T07:09:49;-19306.84;;;6.11;100.00
5350;BME280;2697;42.144;24.794;2022-12-01T07:12:14;-19307.72;;;6.14;100.00
5350;BME280;2697;42.144;24.794;2022-12-01T07:14:40;-19307.13;;;6.12;100.00
5350;BME280;2697;42.144;24.794;2022-12-01T07:17:07;-19304.13;;;6.02;100.00
5350;BME280;2697;42.144;24.794;2022-12-01T07:19:33;-19307.44;;;6.13;100.00
5350;BME280;2697;42.144;24.794;2022-12-01T07:21:58;-19307.72;;;6.14;100.00
5350;BME280;2697;42.144;24.794;2022-12-01T07:24:24;-19310.28;;;6.22;100.00
5350;BME280;2697;42.144;24.794;2022-12-01T07:26:49;-19309.53;;;6.20;100.00
5350;BME280;2697;42.144;24.794;2022-12-01T07:29:15;-19307.44;;;6.13;100.00
5350;BME280;2697;42.144;24.794;2022-12-01T07:31:40;-19306.84;;;6.11;100.00
5350;BME280;2697;42.144;24.794;2022-12-01T07:34:05;-19307.13;;;6.12;100.00
5350;BME280;2697;42.144;24.794;2022-12-01T07:36:31;-19306.69;;;6.10;100.00
5350;BME280;2697;42.144;24.794;2022-12-01T07:38:56;-19308.34;;;6.16;100.00
5350;BME280;2697;42.144;24.794;2022-12-01T07:41:22;-19308.19;;;6.15;100.00
5350;BME280;2697;42.144;24.794;2022-12-01T07:43:47;-19308.63;;;6.17;100.00
5350;BME280;2697;42.144;24.794;2022-12-01T07:46:18;-19308.78;;;6.17;100.00
5350;BME280;2697;42.144;24.794;2022-12-01T07:48:44;-19308.03;;;6.15;100.00
5350;BME280;2697;42.144;24.794;2022-12-01T07:51:13;-19310.28;;;6.22;100.00
5350;BME280;2697;42.144;24.794;2022-12-01T07:53:42;-19308.34;;;6.16;100.00
5350;BME280;2697;42.144;24.794;2022-12-01T07:56:08;-19311.19;;;6.25;100.00
5350;BME280;2697;42.144;24.794;2022-12-01T07:58:34;-19310.13;;;6.22;100.00
5350;BME280;2697;42.144;24.794;2022-12-01T08:01:05;-19310.44;;;6.23;100.00
5350;BME280;2697;42.144;24.794;2022-12-01T08:03:31;-19311.34;;;6.26;100.00
5350;BME280;2697;42.144;24.794;2022-12-01T08:05:57;-19309.53;;;6.20;100.00
5350;BME280;2697;42.144;24.794;2022-12-01T08:08:23;-19307.13;;;6.12;100.00
5350;BME280;2697;42.144;24.794;2022-12-01T08:10:49;-19308.19;;;6.15;100.00
5350;BME280;2697;42.144;24.794;2022-12-01T08:13:15;-19308.94;;;6.18;100.00
5350;BME280;2697;42.144;24.794;2022-12-01T08:15:40;-19309.53;;;6.20;100.00
5350;BME280;2697;42.144;24.794;2022-12-01T08:18:06;-19309.09;;;6.18;100.00
5350;BME280;2697;42.144;24.794;2022-12-01T08:20:31;-19308.19;;;6.15;100.00
5350;BME280;2697;42.144;24.794;2022-12-01T08:22:59;-19309.53;;;6.20;100.00
5350;BME280;2697;42.144;24.794;2022-12-01T08:25:26;-19302.91;;;5.97;100.00
5350;BME280;2697;42.144;24.794;2022-12-01T08:27:52;-19309.53;;;6.20;100.00
5350;BME280;2697;42.144;24.794;2022-12-01T08:30:17;-19309.84;;;6.21;100.00
5350;BME280;2697;42.144;24.794;2022-12-01T08:32:43;-19310.75;;;6.24;100.00
5350;BME280;2697;42.144;24.794;2022-12-01T08:35:08;-19310.00;;;6.21;100.00
5350;BME280;2697;42.144;24.794;2022-12-01T08:37:34;-19308.94;;;6.18;100.00
5350;BME280;2697;42.144;24.794;2022-12-01T08:39:59;-19302.63;;;5.96;100.00
5350;BME280;2697;42.144;24.794;2022-12-01T08:42:24;-19306.22;;;6.09;100.00
5350;BME280;2697;42.144;24.794;2022-12-01T08:44:50;-19308.63;;;6.17;100.00
5350;BME280;2697;42.144;24.794;2022-12-01T08:47:15;-19307.13;;;6.12;100.00
5350;BME280;2697;42.144;24.794;2022-12-01T08:49:41;-19307.44;;;6.13;100.00
5350;BME280;2697;42.144;24.794;2022-12-01T08:52:06;-19306.22;;;6.09;100.00
5350;BME280;2697;42.144;24.794;2022-12-01T08:54:31;-19307.44;;;6.13;100.00
5350;BME280;2697;42.144;24.794;2022-12-01T08:56:57;-19306.84;;;6.11;100.00
5350;BME280;2697;42.144;24.794;2022-12-01T08:59:22;-19305.63;;;6.07;100.00
5350;BME280;2697;42.144;24.794;2022-12-01T09:01:48;-19305.34;;;6.06;100.00
5350;BME280;2697;42.144;24.794;2022-12-01T09:04:18;-19304.72;;;6.04;100.00
5350;BME280;2697;42.144;24.794;2022-12-01T09:06:45;-19306.22;;;6.09;100.00
5350;BME280;2697;42.144;24.794;2022-12-01T09:09:17;-19305.63;;;6.07;100.00
5350;BME280;2697;42.144;24.794;2022-12-01T09:11:44;-19307.13;;;6.12;100.00
5350;BME280;2697;42.144;24.794;2022-12-01T09:14:11;-19307.72;;;6.14;100.00
5350;BME280;2697;42.144;24.794;2022-12-01T09:16:36;-19307.72;;;6.14;100.00
5350;BME280;2697;42.144;24.794;2022-12-01T09:19:02;-19309.25;;;6.19;100.00
5350;BME280;2697;42.144;24.794;2022-12-01T09:21:32;-19309.53;;;6.20;100.00
5350;BME280;2697;42.144;24.794;2022-12-01T09:23:59;-19310.00;;;6.21;100.00
5350;BME280;2697;42.144;24.794;2022-12-01T09:26:25;-19310.44;;;6.23;100.00
5350;BME280;2697;42.144;24.794;2022-12-01T09:28:55;-19311.03;;;6.25;100.00
5350;BME280;2697;42.144;24.794;2022-12-01T09:31:21;-19310.28;;;6.22;100.00
5350;BME280;2697;42.144;24.794;2022-12-01T09:34:01;-19313.75;;;6.34;100.00
5350;BME280;2697;42.144;24.794;2022-12-01T09:36:30;-19313.00;;;6.32;100.00
5350;BME280;2697;42.144;24.794;2022-12-01T09:38:56;-19314.06;;;6.35;100.00
5350;BME280;2697;42.144;24.794;2022-12-01T09:41:33;-19314.66;;;6.37;100.00
5350;BME280;2697;42.144;24.794;2022-12-01T09:44:07;-19316.75;;;6.44;100.00
5350;BME280;2697;42.144;24.794;2022-12-01T09:46:55;-19315.25;;;6.39;100.00
5350;BME280;2697;42.144;24.794;2022-12-01T09:49:25;-19316.75;;;6.44;100.00
5350;BME280;2697;42.144;24.794;2022-12-01T09:51:53;-19317.22;;;6.46;100.00
5350;BME280;2697;42.144;24.794;2022-12-01T09:54:19;-19319.63;;;6.54;100.00
5350;BME280;2697;42.144;24.794;2022-12-01T09:56:49;-19318.72;;;6.51;100.00
5350;BME280;2697;42.144;24.794;2022-12-01T09:59:20;-19316.59;;;6.44;100.00
5350;BME280;2697;42.144;24.794;2022-12-01T10:01:52;-19317.66;;;6.47;100.00
5350;BME280;2697;42.144;24.794;2022-12-01T10:04:29;-19316.16;;;6.42;100.00
5350;BME280;2697;42.144;24.794;2022-12-01T10:07:01;-19318.09;;;6.49;100.00
5350;BME280;2697;42.144;24.794;2022-12-01T10:12:17;-19318.41;;;6.50;100.00
5350;BME280;2697;42.144;24.794;2022-12-01T10:14:46;-19317.97;;;6.48;100.00
5350;BME280;2697;42.144;24.794;2022-12-01T10:31:27;-19319.75;;;6.54;100.00
5350;BME280;2697;42.144;24.794;2022-12-01T10:34:01;-19322.94;;;6.65;100.00
5350;BME280;2697;42.144;24.794;2022-12-01T10:36:28;-19324.88;;;6.72;100.00
5350;BME280;2697;42.144;24.794;2022-12-01T10:38:54;-19323.38;;;6.67;100.00
5350;BME280;2697;42.144;24.794;2022-12-01T10:41:22;-19323.06;;;6.66;100.00
5350;BME280;2697;42.144;24.794;2022-12-01T10:43:50;-19322.78;;;6.65;100.00
5350;BME280;2697;42.144;24.794;2022-12-01T10:47:01;-19323.53;;;6.67;100.00
5350;BME280;2697;42.144;24.794;2022-12-01T10:49:17;-19325.34;;;6.73;100.00
5350;BME280;2697;42.144;24.794;2022-12-01T10:51:53;-19325.78;;;6.75;100.00
5350;BME280;2697;42.144;24.794;2022-12-01T10:54:19;-19326.09;;;6.76;100.00
5350;BME280;2697;42.144;24.794;2022-12-01T10:56:47;-19326.38;;;6.77;100.00
5350;BME280;2697;42.144;24.794;2022-12-01T10:59:35;-19325.78;;;6.75;100.00
5350;BME280;2697;42.144;24.794;2022-12-01T11:02:05;-19324.13;;;6.69;100.00
5350;BME280;2697;42.144;24.794;2022-12-01T11:04:45;-19323.22;;;6.66;100.00
5350;BME280;2697;42.144;24.794;2022-12-01T11:07:19;-19327.88;;;6.82;100.00
5350;BME280;2697;42.144;24.794;2022-12-01T11:10:16;-19325.19;;;6.73;100.00
5350;BME280;2697;42.144;24.794;2022-12-01T11:12:39;-19324.13;;;6.69;100.00
5350;BME280;2697;42.144;24.794;2022-12-01T11:15:05;-19325.47;;;6.74;100.00
5350;BME280;2697;42.144;24.794;2022-12-01T11:17:39;-19324.88;;;6.72;100.00
5350;BME280;2697;42.144;24.794;2022-12-01T11:22:52;-19321.88;;;6.62;100.00
5350;BME280;2697;42.144;24.794;2022-12-01T11:25:19;-19322.31;;;6.63;100.00
5350;BME280;2697;42.144;24.794;2022-12-01T11:27:52;-19321.28;;;6.60;100.00
5350;BME280;2697;42.144;24.794;2022-12-01T11:30:22;-19319.16;;;6.52;100.00
5350;BME280;2697;42.144;24.794;2022-12-01T11:32:53;-19318.88;;;6.51;100.00
5350;BME280;2697;42.144;24.794;2022-12-01T11:35:22;-19319.31;;;6.53;100.00
5350;BME280;2697;42.144;24.794;2022-12-01T11:37:53;-19319.47;;;6.53;100.00
5350;BME280;2697;42.144;24.794;2022-12-01T11:42:48;-19317.66;;;6.47;100.00
5350;BME280;2697;42.144;24.794;2022-12-01T11:45:21;-19314.94;;;6.38;100.00
5350;BME280;2697;42.144;24.794;2022-12-01T11:48:02;-19315.69;;;6.41;100.00
5350;BME280;2697;42.144;24.794;2022-12-01T11:50:31;-19315.56;;;6.40;100.00
5350;BME280;2697;42.144;24.794;2022-12-01T11:52:57;-19312.41;;;6.29;100.00
5350;BME280;2697;42.144;24.794;2022-12-01T11:55:26;-19312.09;;;6.28;100.00
5350;BME280;2697;42.144;24.794;2022-12-01T11:57:54;-19311.50;;;6.26;100.00
5350;BME280;2697;42.144;24.794;2022-12-01T12:00:23;-19313.28;;;6.33;100.00
5350;BME280;2697;42.144;24.794;2022-12-01T12:05:41;-19315.69;;;6.41;100.00
5350;BME280;2697;42.144;24.794;2022-12-01T12:11:08;-19316.16;;;6.42;100.00
5350;BME280;2697;42.144;24.794;2022-12-01T12:16:23;-19318.56;;;6.50;100.00
5350;BME280;2697;42.144;24.794;2022-12-01T12:21:31;-19319.31;;;6.53;100.00
5350;BME280;2697;42.144;24.794;2022-12-01T12:24:25;-19318.88;;;6.51;100.00
5350;BME280;2697;42.144;24.794;2022-12-01T12:27:18;-19320.06;;;6.55;100.00
5350;BME280;2697;42.144;24.794;2022-12-01T12:49:02;-19323.69;;;6.68;100.00
5350;BME280;2697;42.144;24.794;2022-12-01T12:51:40;-19324.72;;;6.71;100.00
5350;BME280;2697;42.144;24.794;2022-12-01T12:54:37;-19326.09;;;6.76;100.00
5350;BME280;2697;42.144;24.794;2022-12-01T12:57:22;-19323.81;;;6.68;100.00
5350;BME280;2697;42.144;24.794;2022-12-01T12:59:54;-19324.88;;;6.72;100.00
5350;BME280;2697;42.144;24.794;2022-12-01T13:02:31;-19324.88;;;6.72;100.00
5350;BME280;2697;42.144;24.794;2022-12-01T13:05:04;-19323.97;;;6.69;100.00
5350;BME280;2697;42.144;24.794;2022-12-01T13:07:53;-19322.47;;;6.64;100.00
5350;BME280;2697;42.144;24.794;2022-12-01T13:10:36;-19322.94;;;6.65;100.00
5350;BME280;2697;42.144;24.794;2022-12-01T13:15:45;-19323.38;;;6.67;100.00
5350;BME280;2697;42.144;24.794;2022-12-01T13:21:02;-19317.06;;;6.45;100.00
5350;BME280;2697;42.144;24.794;2022-12-01T13:23:28;-19323.38;;;6.67;100.00
5350;BME280;2697;42.144;24.794;2022-12-01T13:25:56;-19323.22;;;6.66;100.00
5350;BME280;2697;42.144;24.794;2022-12-01T13:28:26;-19321.88;;;6.62;100.00
5350;BME280;2697;42.144;24.794;2022-12-01T13:31:04;-19321.88;;;6.62;100.00
5350;BME280;2697;42.144;24.794;2022-12-01T13:33:31;-19319.75;;;6.54;100.00
5350;BME280;2697;42.144;24.794;2022-12-01T13:35:57;-19319.31;;;6.53;100.00
5350;BME280;2697;42.144;24.794;2022-12-01T13:38:27;-19319.31;;;6.53;100.00
5350;BME280;2697;42.144;24.794;2022-12-01T13:41:20;-19319.16;;;6.52;100.00
5350;BME280;2697;42.144;24.794;2022-12-01T13:46:30;-19320.38;;;6.56;100.00
5350;BME280;2697;42.144;24.794;2022-12-01T13:48:59;-19322.03;;;6.62;100.00
5350;BME280;2697;42.144;24.794;2022-12-01T13:51:26;-19319.31;;;6.53;100.00
5350;BME280;2697;42.144;24.794;2022-12-01T13:54:26;-19317.06;;;6.45;100.00
5350;BME280;2697;42.144;24.794;2022-12-01T13:57:04;-19316.16;;;6.42;100.00
5350;BME280;2697;42.144;24.794;2022-12-01T14:02:31;-19317.97;;;6.48;100.00
5350;BME280;2697;42.144;24.794;2022-12-01T14:07:48;-19314.81;;;6.38;100.00
5350;BME280;2697;42.144;24.794;2022-12-01T14:10:30;-19314.19;;;6.36;100.00
5350;BME280;2697;42.144;24.794;2022-12-01T14:13:01;-19316.31;;;6.43;100.00
5350;BME280;2697;42.144;24.794;2022-12-01T14:18:14;-19314.81;;;6.38;100.00
5350;BME280;2697;42.144;24.794;2022-12-01T14:20:44;-19314.34;;;6.36;100.00
5350;BME280;2697;42.144;24.794;2022-12-01T14:23:17;-19314.50;;;6.37;100.00
5350;BME280;2697;42.144;24.794;2022-12-01T14:26:02;-19316.59;;;6.44;100.00
5350;BME280;2697;42.144;24.794;2022-12-01T14:34:02;-19315.69;;;6.41;100.00
5350;BME280;2697;42.144;24.794;2022-12-01T14:36:37;-19315.84;;;6.41;100.00
5350;BME280;2697;42.144;24.794;2022-12-01T14:41:59;-19315.41;;;6.40;100.00
5350;BME280;2697;42.144;24.794;2022-12-01T14:50:03;-19312.84;;;6.31;100.00
5350;BME280;2697;42.144;24.794;2022-12-01T14:52:44;-19311.03;;;6.25;100.00
5350;BME280;2697;42.144;24.794;2022-12-01T14:55:24;-19313.59;;;6.34;100.00
5350;BME280;2697;42.144;24.794;2022-12-01T14:57:58;-19311.94;;;6.28;100.00
5350;BME280;2697;42.144;24.794;2022-12-01T15:00:25;-19312.25;;;6.29;100.00
5350;BME280;2697;42.144;24.794;2022-12-01T15:02:56;-19313.44;;;6.33;100.00
5350;BME280;2697;42.144;24.794;2022-12-01T15:05:26;-19312.84;;;6.31;100.00
5350;BME280;2697;42.144;24.794;2022-12-01T15:08:00;-19311.34;;;6.26;100.00